Flight Track Log - Related Links

Times and Time Zones

All times are in EDT time to prevent confusion due to time zone crossing. See the TRS507 flight status page for this flight to view local times or setup timezone preferences in your user account.

Time Position Orientation Groundspeed Altitude Reporting Facility
EDT Latitude Longitude Course Direction KTS MPH feet Rate Location/Type
Mon 07:50:35 PM 28.4000 -81.3000 156° South 167 192 700  Level Orlando TRACON
Mon 07:51:53 PM 28.3333 -81.2667 127° Southeast 234 269 2,500 1,895 Climbing Orlando TRACON
Mon 07:52:48 PM 28.3000 -81.2167 109° East 244 281 4,900 2,727 Climbing Orlando TRACON
Mon 07:54:49 PM 28.2575 -81.0803 131° Southeast 239 275 10,500 2,552 Climbing Miami Center
Mon 07:55:49 PM 28.2031 -81.0100 129° Southeast 289 333 12,600 2,450 Climbing Miami Center
Mon 07:56:49 PM 28.1469 -80.9325 128° Southeast 321 369 15,400 2,650 Climbing Miami Center
Mon 07:57:49 PM 28.0867 -80.8458 117° Southeast 333 383 17,900 2,250 Climbing Miami Center
Mon 07:58:49 PM 28.0394 -80.7428 107° East 352 405 19,900 2,050 Climbing Miami Center
Mon 07:59:49 PM 28.0092 -80.6289 106° East 362 417 22,000 2,100 Climbing Miami Center
Mon 08:00:49 PM 27.9750 -80.4917 123° Southeast 397 457 24,100 1,850 Climbing Miami Center
Mon 08:01:49 PM 27.9111 -80.3814 139° Southeast 409 471 25,700 1,650 Climbing Miami Center
Mon 08:02:49 PM 27.8253 -80.2967 147° Southeast 431 496 27,400 1,800 Climbing Miami Center
Mon 08:03:49 PM 27.7206 -80.2206 148° Southeast 437 503 29,300 1,900 Climbing Miami Center
Mon 08:04:49 PM 27.6117 -80.1447 148° Southeast 450 518 31,200 2,050 Climbing Miami Center
Mon 08:05:49 PM 27.5092 -80.0717 149° Southeast 445 512 33,400 1,950 Climbing Miami Center
Mon 08:06:49 PM 27.4083 -80.0033 146° Southeast 437 503 35,100 1,500 Climbing Miami Center
Mon 08:07:49 PM 27.3075 -79.9258 127° Southeast 437 503 36,400 1,250 Climbing Miami Center
Mon 08:08:49 PM 27.2347 -79.8164 123° Southeast 425 489 37,600 1,100 Climbing Miami Center
Mon 08:09:49 PM 27.1581 -79.6861 123° Southeast 447 514 38,600 900 Climbing Miami Center
Mon 08:10:49 PM 27.0892 -79.5678 123° Southeast 454 522 39,400 700 Climbing Miami Center
Mon 08:11:49 PM 27.0203 -79.4494 124° Southeast 454 522 40,000 300 Climbing Miami Center
Mon 08:12:49 PM 26.9553 -79.3408 124° Southeast 454 522 40,000  Level Miami Center
Mon 08:13:49 PM 26.8842 -79.2231 124° Southeast 459 528 40,000  Level Miami Center
Mon 08:14:49 PM 26.8131 -79.1028 123° Southeast 459 528 40,000  Level Miami Center
Mon 08:15:49 PM 26.7439 -78.9853 124° Southeast 459 528 40,000  Level Miami Center
Mon 08:16:49 PM 26.6703 -78.8631 124° Southeast 464 534 40,000  Level Miami Center
Mon 08:17:49 PM 26.6008 -78.7481 126° Southeast 464 534 40,000  Level Miami Center
Mon 08:18:49 PM 26.5208 -78.6236 122° Southeast 458 527 40,000  Level Miami Center
Mon 08:19:49 PM 26.4514 -78.4994 123° Southeast 458 527 40,000 -100 Level Miami Center
Mon 08:20:49 PM 26.3817 -78.3803 124° Southeast 463 533 39,800 -500 Descending Miami Center
Mon 08:21:49 PM 26.3117 -78.2636 123° Southeast 463 533 39,000 -400 Descending Miami Center
Mon 08:22:49 PM 26.2417 -78.1444 123° Southeast 453 521 39,000  Level Miami Center
Mon 08:23:49 PM 26.1739 -78.0303 124° Southeast 453 521 39,000  Level Miami Center
Mon 08:24:49 PM 26.1036 -77.9139 123° Southeast 453 521 39,000  Level Miami Center
Mon 08:25:49 PM 26.0417 -77.8092 123° Southeast 448 516 39,000  Level Miami Center
Mon 08:26:49 PM 25.9714 -77.6908 124° Southeast 448 516 39,000  Level Miami Center
Mon 08:27:49 PM 25.9008 -77.5725 124° Southeast 448 516 39,000  Level Miami Center
Mon 08:28:49 PM 25.8219 -77.4450 124° Southeast 453 521 39,000  Level Miami Center
Mon 08:29:49 PM 25.7514 -77.3294 124° Southeast 453 521 39,000  Level Miami Center
Mon 08:30:49 PM 25.6806 -77.2117 125° Southeast 453 521 39,000  Level Miami Center
Mon 08:31:49 PM 25.6097 -77.0983 124° Southeast 447 514 39,000  Level Miami Center
Mon 08:32:49 PM 25.5389 -76.9831 124° Southeast 447 514 39,000  Level Miami Center
Mon 08:33:49 PM 25.4700 -76.8703 124° Southeast 447 514 39,000  Level Miami Center
Mon 08:34:49 PM 25.3989 -76.7553 124° Southeast 447 514 39,000  Level Miami Center
Mon 08:35:49 PM 25.3278 -76.6381 124° Southeast 447 514 39,000  Level Miami Center
Mon 08:36:49 PM 25.2586 -76.5256 124° Southeast 447 514 39,000  Level Miami Center
Mon 08:37:49 PM 25.1892 -76.4133 124° Southeast 447 514 39,000  Level Miami Center
Mon 08:38:49 PM 25.1178 -76.2986 126° Southeast 447 514 39,000  Level Miami Center
Mon 08:39:49 PM 25.0464 -76.1889 123° Southeast 447 514 39,000  Level Miami Center
Mon 08:40:49 PM 24.9767 -76.0725 125° Southeast 447 514 39,000  Level Miami Center
Mon 08:41:49 PM 24.9133 -75.9742 124° Southeast 447 514 39,000  Level Miami Center
Mon 08:42:49 PM 24.8439 -75.8625 124° Southeast 446 513 39,000  Level Miami Center
Mon 08:43:49 PM 24.7719 -75.7464 126° Southeast 446 513 39,000  Level Miami Center
Mon 08:44:49 PM 24.7000 -75.6372 123° Southeast 446 513 39,000  Level Miami Center
Mon 08:45:49 PM 24.6300 -75.5192 125° Southeast 446 513 39,000  Level Miami Center
Mon 08:46:49 PM 24.5578 -75.4056 125° Southeast 446 513 39,000  Level Miami Center
Mon 08:47:49 PM 24.4836 -75.2878 125° Southeast 446 513 39,000  Level Miami Center
Mon 08:48:49 PM 24.4111 -75.1747 124° Southeast 451 519 39,000  Level Miami Center
Mon 08:49:49 PM 24.3389 -75.0592 125° Southeast 451 519 39,000  Level Miami Center
Mon 08:50:49 PM 24.2642 -74.9442 125° Southeast 456 525 39,000  Level Miami Center
Mon 08:51:49 PM 24.1917 -74.8292 125° Southeast 456 525 39,000  Level Miami Center
Mon 08:52:49 PM 24.1169 -74.7142 125° Southeast 462 532 39,000  Level Miami Center
Mon 08:53:49 PM 24.0400 -74.5950 125° Southeast 462 532 39,000  Level Miami Center
Mon 08:54:49 PM 23.9692 -74.4825 126° Southeast 462 532 39,000  Level Miami Center
Mon 08:55:49 PM 23.8919 -74.3658 125° Southeast 462 532 39,000  Level Miami Center
Mon 08:56:49 PM 23.8192 -74.2514 125° Southeast 462 532 39,000  Level Miami Center
Mon 08:57:49 PM 23.7439 -74.1350 125° Southeast 468 539 39,000  Level Miami Center
Mon 08:58:49 PM 23.6708 -74.0231 125° Southeast 468 539 39,000  Level Miami Center
Mon 08:59:49 PM 23.5953 -73.9047 127° Southeast 468 539 39,000  Level Miami Center
Mon 09:00:49 PM 23.5158 -73.7911 125° Southeast 468 539 39,000  Level Miami Center
Mon 09:01:49 PM 23.4422 -73.6750 126° Southeast 468 539 39,000  Level Miami Center
Mon 09:02:49 PM 23.3644 -73.5594 125° Southeast 473 544 39,000  Level Miami Center
Mon 09:03:49 PM 23.2889 -73.4414 126° Southeast 473 544 39,000  Level Miami Center
Mon 09:04:49 PM 23.2044 -73.3172 120° Southeast 468 539 39,000  Level Miami Center
Mon 09:05:49 PM 23.1411 -73.1969 133° Southeast 468 539 39,000  Level Miami Center
Mon 09:06:49 PM 23.0464 -73.0847 124° Southeast 468 539 39,000  Level Miami Center
Mon 09:07:49 PM 22.9811 -72.9806 125° Southeast 474 545 39,000  Level Miami Center
Mon 09:08:49 PM 22.9050 -72.8633 125° Southeast 474 545 39,000  Level Miami Center
Mon 09:09:49 PM 22.8286 -72.7464 126° Southeast 474 545 39,000  Level Miami Center
Mon 09:10:49 PM 22.7525 -72.6339 125° Southeast 474 545 39,000  Level Miami Center
Mon 09:11:49 PM 22.6761 -72.5172 127° Southeast 474 545 39,000  Level Miami Center
Mon 09:12:49 PM 22.5956 -72.4031 126° Southeast 474 545 39,000  Level Miami Center
Mon 09:13:49 PM 22.5169 -72.2867 125° Southeast 479 551 39,000  Level Miami Center
Mon 09:14:49 PM 22.4403 -72.1681 126° Southeast 479 551 39,000  Level Miami Center
Mon 09:15:49 PM 22.3614 -72.0519 126° Southeast 484 557 39,000  Level Miami Center
Mon 09:16:49 PM 22.2825 -71.9358 126° Southeast 484 557 39,000  Level Miami Center
Mon 09:17:49 PM 22.2056 -71.8200 127° Southeast 484 557 39,000  Level Miami Center
Mon 09:18:49 PM 22.1267 -71.7067 126° Southeast 484 557 39,000  Level Miami Center
Mon 09:19:49 PM 22.0478 -71.5911 126° Southeast 484 557 39,000  Level Miami Center
Mon 09:20:49 PM 21.9706 -71.4756 126° Southeast 484 557 39,000  Level Miami Center
Mon 09:21:49 PM 21.8914 -71.3603 126° Southeast 484 557 39,000  Level Miami Center
Mon 09:22:49 PM 21.8164 -71.2494 126° Southeast 479 551 39,000  Level Miami Center
Mon 09:23:49 PM 21.7392 -71.1344 126° Southeast 479 551 39,000  Level Miami Center
Mon 09:24:49 PM 21.6619 -71.0217 127° Southeast 474 545 39,000  Level Miami Center
Mon 09:25:49 PM 21.5758 -70.8983 127° Southeast 474 545 39,000  Level Miami Center
Mon 09:26:49 PM 21.4961 -70.7839 127° Southeast 474 545 39,000  Level Miami Center
Mon 09:27:49 PM 21.4167 -70.6694 127° Southeast 474 545 39,000  Level Miami Center
Mon 09:28:49 PM 21.3369 -70.5550 127° Southeast 474 545 39,000  Level Miami Center
Mon 09:29:49 PM 21.2569 -70.4408 126° Southeast 474 545 39,000  Level Miami Center
Mon 09:30:49 PM 21.1792 -70.3269 127° Southeast 474 545 39,000  Level Miami Center
Mon 09:31:49 PM 21.0972 -70.2108 126° Southeast 479 551 39,000  Level Miami Center
Mon 09:32:49 PM 21.0172 -70.0950 127° Southeast 485 558 39,000  Level Miami Center
Mon 09:33:49 PM 20.9369 -69.9792 127° Southeast 485 558 39,000  Level Miami Center
Mon 09:34:49 PM 20.8569 -69.8658 127° Southeast 490 564 39,000  Level Miami Center
Mon 09:35:49 PM 20.7744 -69.7481 127° Southeast 490 564 39,000  Level Miami Center
Mon 09:36:49 PM 20.6919 -69.6328 126° Southeast 490 564 39,000  Level Miami Center
Mon 09:37:49 PM 20.6136 -69.5175 127° Southeast 490 564 39,000  Level Miami Center
Mon 09:38:49 PM 20.5311 -69.4025 128° Southeast 490 564 39,000  Level Miami Center
Mon 09:39:49 PM 20.4464 -69.2878 126° Southeast 490 564 39,000  Level Miami Center
Mon 09:40:49 PM 20.3678 -69.1708 126° Southeast 490 564 39,000  Level Miami Center
Mon 09:41:49 PM 20.2892 -69.0539 129° Southeast 490 564 39,000  Level Miami Center
Mon 09:42:49 PM 20.2044 -68.9417 125° Southeast 490 564 39,000  Level Miami Center
Mon 09:43:49 PM 20.1256 -68.8228 129° Southeast 490 564 39,000  Level Miami Center
Mon 09:44:49 PM 20.0406 -68.7111 128° Southeast 490 564 39,000  Level Miami Center
Mon 09:45:49 PM 19.9597 -68.5992 124° Southeast 490 564 39,000  Level Miami Center
Mon 09:46:49 PM 19.8850 -68.4825 130° Southeast 490 564 39,000  Level Miami Center
Mon 09:47:49 PM 19.7981 -68.3736 127° Southeast 485 558 39,000  Level Miami Center
Mon 09:48:49 PM 19.7169 -68.2597 126° Southeast 490 564 39,000  Level Miami Center
Mon 09:49:49 PM 19.6378 -68.1461 128° Southeast 490 564 39,000  Level Miami Center
Mon 09:50:49 PM 19.5547 -68.0350 128° Southeast 490 564 39,000 -450 Level Miami Center
Mon 09:51:49 PM 19.4736 -67.9239 132° Southeast 485 558 38,100 -1,678 Descending Miami Center
Mon 09:52:47 PM 19.3833 -67.8167 127° Southeast 480 552 35,700 -2,723 Descending San Juan Center
Mon 09:53:48 PM 19.3000 -67.7000 127° Southeast 490 564 32,700 -2,579 Descending San Juan Center
Mon 09:54:48 PM 19.2167 -67.5833 114° Southeast 480 552 30,500 -2,281 Descending San Juan Center
Mon 09:55:49 PM 19.1667 -67.4667 118° Southeast 470 541 28,100 -2,430 Descending San Juan Center
Mon 09:56:49 PM 19.1000 -67.3333 114° Southeast 460 529 25,600 -2,331 Descending San Juan Center
Mon 09:57:50 PM 19.0500 -67.2167 118° Southeast 440 506 23,400 -2,182 Descending San Juan Center
Mon 09:58:50 PM 19.0000 -67.1167 118° Southeast 430 495 21,200 -2,231 Descending San Juan Center
Mon 09:59:51 PM 18.9333 -66.9833 113° Southeast 420 483 18,900 -2,083 Descending San Juan Center
Mon 10:00:51 PM 18.9000 -66.9000 118° Southeast 390 449 17,000 -2,050 Descending San Juan Center
Mon 10:01:51 PM 18.8500 -66.8000 118° Southeast 370 426 14,800 -2,083 Descending San Juan Center
Mon 10:02:52 PM 18.8000 -66.7000 118° Southeast 360 414 12,800 -1,636 Descending San Juan Center
Mon 10:03:52 PM 18.7500 -66.6000 118° Southeast 320 368 11,500 -1,450 Descending San Juan Center
Mon 10:04:52 PM 18.7167 -66.5333 113° Southeast 300 345 9,900 -1,736 Descending San Juan Center
Mon 10:05:53 PM 18.6833 -66.4500 118° Southeast 280 322 8,000 -1,785 Descending San Juan Center
Mon 10:06:53 PM 18.6500 -66.3833 145° Southeast 270 311 6,300 -1,736 Descending San Juan Center
Mon 10:07:54 PM 18.5833 -66.3333 137° Southeast 270 311 4,500 -1,488 Descending San Juan Center
Mon 10:08:54 PM 18.5333 -66.2833 137° Southeast 260 299 3,300 -1,100 Descending San Juan Center
Mon 10:09:54 PM 18.4833 -66.2333 137° Southeast 230 265 2,300 -650 Descending San Juan Center
Mon 10:10:54 PM 18.4500 -66.2000 109° East 180 207 2,000 -150 Descending San Juan Center
Mon 10:11:54 PM 18.4333 -66.1500 90° East 160 184 2,000  Level San Juan Center
Mon 10:12:55 PM 18.4333 -66.1167 90° East 120 138 2,000 -298 Level San Juan Center
Mon 10:13:55 PM 18.4333 -66.0833 90° East 110 127 1,400 -595 Descending San Juan Center
Mon 10:14:56 PM 18.4333 -66.0500 90° East 120 138 800 -590 Descending San Juan Center

Login

Don't have an account? Register now (free) for customized features, flight alerts, and more!